createdAt,value
2022-07-26T00:01:21.131Z,63.32
2022-07-26T00:03:49.254Z,64.04
2022-07-26T00:06:16.409Z,64.68
2022-07-26T00:08:47.080Z,64.73
2022-07-26T00:11:14.116Z,65.32
2022-07-26T00:13:40.706Z,65.20
2022-07-26T00:16:07.362Z,67.20
2022-07-26T00:18:33.935Z,67.33
2022-07-26T00:21:00.438Z,67.35
2022-07-26T00:23:27.793Z,67.22
2022-07-26T00:25:54.437Z,66.86
2022-07-26T00:28:21.115Z,66.40
2022-07-26T00:30:47.846Z,65.93
2022-07-26T00:33:14.385Z,66.30
2022-07-26T00:35:41.159Z,67.00
2022-07-26T00:38:07.948Z,67.34
2022-07-26T00:40:36.037Z,66.97
2022-07-26T00:43:02.694Z,67.42
2022-07-26T00:45:29.256Z,67.44
2022-07-26T00:47:55.906Z,67.38
2022-07-26T00:50:22.466Z,67.01
2022-07-26T00:52:50.200Z,67.33
2022-07-26T00:55:17.994Z,67.29
2022-07-26T00:57:44.740Z,67.84
2022-07-26T01:00:14.414Z,67.59
2022-07-26T01:02:40.977Z,67.50
2022-07-26T01:08:48.405Z,67.84
2022-07-26T01:11:14.869Z,67.51
2022-07-26T01:13:47.514Z,66.66
2022-07-26T01:16:14.297Z,66.57
2022-07-26T01:18:41.017Z,66.34
2022-07-26T01:21:13.240Z,65.42
2022-07-26T01:23:41.770Z,65.75
2022-07-26T01:26:08.553Z,66.14
2022-07-26T01:28:40.351Z,66.76
2022-07-26T01:31:08.036Z,66.50
2022-07-26T01:33:35.040Z,66.30
2022-07-26T01:36:01.806Z,65.85
2022-07-26T01:38:28.612Z,65.87
2022-07-26T01:40:55.218Z,66.06
2022-07-26T01:43:21.778Z,65.41
2022-07-26T01:45:48.518Z,65.49
2022-07-26T01:48:15.266Z,65.62
2022-07-26T01:50:42.288Z,65.98
2022-07-26T01:53:09.001Z,65.98
2022-07-26T01:55:36.088Z,65.66
2022-07-26T01:58:05.129Z,65.45
2022-07-26T02:00:32.192Z,66.22
2022-07-26T02:02:58.892Z,66.23
2022-07-26T02:05:25.556Z,65.91
2022-07-26T02:07:52.100Z,65.71
2022-07-26T02:10:18.995Z,65.64
2022-07-26T02:12:45.517Z,65.67
2022-07-26T02:15:13.778Z,65.58
2022-07-26T02:17:40.644Z,65.97
2022-07-26T02:20:08.373Z,65.84
2022-07-26T02:22:35.608Z,65.48
2022-07-26T02:25:05.210Z,65.80
2022-07-26T02:27:32.857Z,66.22
2022-07-26T02:29:59.428Z,66.26
2022-07-26T02:32:26.103Z,65.96
2022-07-26T02:34:52.603Z,65.94
2022-07-26T02:37:19.112Z,65.98
2022-07-26T02:39:45.625Z,66.21
2022-07-26T02:42:12.160Z,66.07
2022-07-26T02:44:38.690Z,65.91
2022-07-26T02:47:05.229Z,66.08
2022-07-26T02:49:31.837Z,65.73
2022-07-26T02:51:58.352Z,65.64
2022-07-26T02:54:24.838Z,65.87
2022-07-26T02:56:51.311Z,65.92
2022-07-26T02:59:17.834Z,65.72
2022-07-26T03:01:44.390Z,65.86
2022-07-26T03:04:11.315Z,65.57
2022-07-26T03:06:38.174Z,65.62
2022-07-26T03:09:04.880Z,65.87
2022-07-26T03:11:31.470Z,65.46
2022-07-26T03:13:57.952Z,65.82
2022-07-26T03:16:29.000Z,66.50
2022-07-26T03:18:55.955Z,67.12
2022-07-26T03:21:22.468Z,66.97
2022-07-26T03:23:48.952Z,66.88
2022-07-26T03:26:15.612Z,66.74
2022-07-26T03:28:42.616Z,66.39
2022-07-26T03:31:09.302Z,66.30
2022-07-26T03:33:36.193Z,66.19
2022-07-26T03:36:03.220Z,66.22
2022-07-26T03:38:30.181Z,65.99
2022-07-26T03:40:56.707Z,65.96
2022-07-26T03:43:23.594Z,65.68
2022-07-26T03:45:50.896Z,65.43
2022-07-26T03:48:20.725Z,65.02
2022-07-26T03:50:47.289Z,64.86
2022-07-26T03:53:14.197Z,64.23
2022-07-26T03:55:59.344Z,64.31
2022-07-26T03:58:25.811Z,63.95
2022-07-26T04:00:52.327Z,63.73
2022-07-26T04:03:19.385Z,63.47
2022-07-26T04:05:48.925Z,63.23
2022-07-26T04:08:16.387Z,63.26
2022-07-26T04:10:47.995Z,63.19
2022-07-26T04:13:14.347Z,62.99
2022-07-26T04:15:40.823Z,62.70
2022-07-26T04:18:07.347Z,62.35
2022-07-26T04:20:33.830Z,62.01
2022-07-26T04:23:00.377Z,62.12
2022-07-26T04:25:26.971Z,62.40
2022-07-26T04:28:05.549Z,61.64
2022-07-26T04:30:32.196Z,61.58
2022-07-26T04:32:58.792Z,61.87
2022-07-26T04:35:25.950Z,61.43
2022-07-26T04:37:52.467Z,61.44
2022-07-26T04:40:21.643Z,61.24
2022-07-26T04:42:51.634Z,60.95
2022-07-26T04:45:18.827Z,60.66
2022-07-26T04:47:50.264Z,60.53
2022-07-26T04:50:21.597Z,60.46
2022-07-26T04:52:49.228Z,60.31
2022-07-26T04:55:16.841Z,59.91
2022-07-26T04:57:43.791Z,59.58
2022-07-26T05:00:22.304Z,60.05
2022-07-26T05:02:51.627Z,59.64
2022-07-26T05:05:18.188Z,60.11
2022-07-26T05:07:46.761Z,59.46
2022-07-26T05:10:15.007Z,59.81
2022-07-26T05:12:41.670Z,59.53
2022-07-26T05:15:13.945Z,59.15
2022-07-26T05:17:42.757Z,59.38
2022-07-26T05:20:11.336Z,58.79
2022-07-26T05:22:38.479Z,58.64
2022-07-26T05:25:06.611Z,58.64
2022-07-26T05:27:33.108Z,58.26
2022-07-26T05:29:59.660Z,58.58
2022-07-26T05:32:28.050Z,58.39
2022-07-26T05:34:54.649Z,58.66
2022-07-26T05:37:21.297Z,58.56
2022-07-26T05:39:47.771Z,58.07
2022-07-26T05:42:14.223Z,57.64
2022-07-26T05:44:42.396Z,56.71
2022-07-26T05:47:09.731Z,57.19
2022-07-26T05:49:40.515Z,56.29
2022-07-26T05:52:08.260Z,55.67
2022-07-26T05:54:35.433Z,55.43
2022-07-26T05:57:02.419Z,54.88
2022-07-26T05:59:29.007Z,55.82
2022-07-26T06:01:56.647Z,54.73
2022-07-26T06:04:26.047Z,54.90
2022-07-26T06:06:54.641Z,54.16
2022-07-26T06:09:24.928Z,53.50
2022-07-26T06:11:51.891Z,53.08
2022-07-26T06:14:19.209Z,53.21
2022-07-26T06:16:48.921Z,53.36
2022-07-26T06:19:15.893Z,52.98
2022-07-26T06:21:42.750Z,52.49
2022-07-26T06:24:09.633Z,52.26
2022-07-26T06:26:36.735Z,52.06
2022-07-26T06:29:03.356Z,51.96
2022-07-26T06:31:29.884Z,51.92
2022-07-26T06:33:56.777Z,51.70
2022-07-26T06:36:26.150Z,51.73
2022-07-26T06:38:56.524Z,51.44
2022-07-26T06:41:23.257Z,51.35
2022-07-26T06:43:49.759Z,50.91
2022-07-26T06:46:16.994Z,50.50
2022-07-26T06:48:47.489Z,50.84
2022-07-26T06:51:19.376Z,50.21
2022-07-26T06:53:45.838Z,50.40
2022-07-26T06:56:14.844Z,49.93
2022-07-26T06:58:42.187Z,50.05
2022-07-26T07:01:08.686Z,49.10
2022-07-26T07:03:35.289Z,48.89
2022-07-26T07:06:01.847Z,48.29
2022-07-26T07:08:29.027Z,48.15
2022-07-26T07:10:56.751Z,48.00
2022-07-26T07:13:23.427Z,47.84
2022-07-26T07:15:49.994Z,47.52
2022-07-26T07:18:16.542Z,47.19
2022-07-26T07:20:43.021Z,47.63
2022-07-26T07:23:09.517Z,47.53
2022-07-26T07:25:36.024Z,46.57
2022-07-26T07:28:02.534Z,45.97
2022-07-26T07:30:29.176Z,45.77
2022-07-26T07:32:56.545Z,45.54
2022-07-26T07:35:23.591Z,46.01
2022-07-26T07:37:53.823Z,45.73
2022-07-26T07:40:21.351Z,44.65
2022-07-26T07:42:47.871Z,44.47
2022-07-26T07:45:14.937Z,43.98
2022-07-26T07:47:41.623Z,43.08
2022-07-26T07:50:08.727Z,43.61
2022-07-26T07:52:35.298Z,42.76
2022-07-26T07:55:36.431Z,43.51
2022-07-26T07:57:48.347Z,43.05
2022-07-26T08:00:16.776Z,42.56
2022-07-26T08:02:45.040Z,42.35
2022-07-26T08:05:15.397Z,41.73
2022-07-26T08:07:42.463Z,42.24
2022-07-26T08:10:09.301Z,43.05
2022-07-26T08:12:36.144Z,42.65
2022-07-26T08:15:07.259Z,43.73
2022-07-26T08:17:34.761Z,43.92
2022-07-26T08:20:05.080Z,43.23
2022-07-26T08:22:34.543Z,42.72
2022-07-26T08:25:00.985Z,42.13
2022-07-26T08:27:27.531Z,42.36
2022-07-26T08:29:54.120Z,42.59
2022-07-26T08:32:20.742Z,43.02
2022-07-26T08:34:47.348Z,42.01
2022-07-26T08:37:17.595Z,42.29
2022-07-26T08:39:46.716Z,41.82
2022-07-26T08:42:15.885Z,41.05
2022-07-26T08:44:47.214Z,41.15
2022-07-26T08:47:35.186Z,41.28
2022-07-26T08:50:06.867Z,41.82
2022-07-26T08:52:33.562Z,41.90
2022-07-26T08:55:00.031Z,41.37
2022-07-26T08:57:26.510Z,41.64
2022-07-26T09:00:25.570Z,41.18
2022-07-26T09:02:53.422Z,41.18
2022-07-26T09:05:25.991Z,41.41
2022-07-26T09:07:52.467Z,42.34
2022-07-26T09:10:19.013Z,42.53
2022-07-26T09:12:45.973Z,42.67
2022-07-26T09:15:26.805Z,41.95
2022-07-26T09:17:55.960Z,41.97
2022-07-26T09:20:28.097Z,42.03
2022-07-26T09:22:59.790Z,42.63
2022-07-26T09:25:28.077Z,42.29
2022-07-26T09:27:55.041Z,42.68
2022-07-26T09:30:22.625Z,42.03
2022-07-26T09:33:03.570Z,42.37
2022-07-26T09:35:50.557Z,42.78
2022-07-26T09:38:18.500Z,42.95
2022-07-26T09:40:46.770Z,42.46
2022-07-26T09:43:21.852Z,41.81
2022-07-26T09:46:03.081Z,40.01
2022-07-26T09:48:36.673Z,39.59
2022-07-26T09:51:14.117Z,39.36
2022-07-26T09:53:45.891Z,39.41
2022-07-26T09:56:13.498Z,37.65
2022-07-26T09:58:40.850Z,39.48
2022-07-26T10:01:07.997Z,39.69
2022-07-26T10:03:35.438Z,39.75
2022-07-26T10:06:03.605Z,39.73
2022-07-26T10:08:31.378Z,40.29
2022-07-26T10:11:06.194Z,40.17
2022-07-26T10:13:32.970Z,40.19
2022-07-26T10:15:59.602Z,39.87
2022-07-26T10:18:39.001Z,40.22
2022-07-26T10:21:18.698Z,40.44
2022-07-26T10:23:47.337Z,40.62
2022-07-26T10:26:33.838Z,41.00
2022-07-26T10:29:20.968Z,40.96
2022-07-26T10:32:01.133Z,40.90
2022-07-26T10:34:32.947Z,41.00
2022-07-26T10:37:05.426Z,41.15
2022-07-26T10:39:32.174Z,41.69
2022-07-26T10:42:01.383Z,41.58
2022-07-26T10:44:41.371Z,41.25
2022-07-26T10:47:07.828Z,41.59
2022-07-26T10:49:56.130Z,40.76
2022-07-26T10:52:26.269Z,40.58
2022-07-26T10:55:03.443Z,40.39
2022-07-26T10:57:32.141Z,40.09
2022-07-26T11:00:00.470Z,40.67
2022-07-26T11:02:32.617Z,40.25
2022-07-26T11:05:03.890Z,41.08
2022-07-26T11:07:31.707Z,41.10
2022-07-26T11:09:59.275Z,40.76
2022-07-26T11:12:26.177Z,40.43
2022-07-26T11:14:54.199Z,40.55
2022-07-26T11:17:28.824Z,39.83
2022-07-26T11:19:56.102Z,40.04
2022-07-26T11:22:32.266Z,40.01
2022-07-26T11:24:58.782Z,39.64
2022-07-26T11:27:25.348Z,39.17
2022-07-26T11:29:51.870Z,37.92
2022-07-26T11:32:23.112Z,39.36
2022-07-26T11:35:01.037Z,39.54
2022-07-26T11:37:27.827Z,38.99
2022-07-26T11:39:54.297Z,37.59
2022-07-26T11:42:22.003Z,38.16
2022-07-26T11:44:49.929Z,39.49
2022-07-26T11:47:19.595Z,40.44
2022-07-26T11:49:59.989Z,39.81
2022-07-26T11:52:31.755Z,40.50
2022-07-26T11:54:58.673Z,40.06
2022-07-26T11:57:30.666Z,40.52
2022-07-26T11:59:58.794Z,40.34
2022-07-26T12:02:26.171Z,40.99
2022-07-26T12:05:13.278Z,40.72
2022-07-26T12:07:52.248Z,39.86
2022-07-26T12:10:18.747Z,41.14
2022-07-26T12:12:45.264Z,42.04
2022-07-26T12:15:13.496Z,44.80
2022-07-26T12:17:58.466Z,50.71
2022-07-26T12:20:27.925Z,51.91
2022-07-26T12:23:04.933Z,53.30
2022-07-26T12:25:32.088Z,53.71
2022-07-26T12:27:58.799Z,54.20
2022-07-26T12:30:25.759Z,55.38
2022-07-26T12:33:02.075Z,56.09
2022-07-26T12:35:38.009Z,55.34
2022-07-26T12:38:04.684Z,55.00
2022-07-26T12:40:41.048Z,55.82
2022-07-26T12:43:08.646Z,55.17
2022-07-26T12:45:36.101Z,54.75
2022-07-26T12:48:10.092Z,55.50
2022-07-26T12:50:36.657Z,55.75
2022-07-26T12:53:08.818Z,55.26
2022-07-26T12:55:36.078Z,55.13
2022-07-26T12:58:02.786Z,55.79
2022-07-26T13:00:30.009Z,55.97
2022-07-26T13:02:57.730Z,54.72
2022-07-26T13:05:24.447Z,55.10
2022-07-26T13:07:55.435Z,54.89
2022-07-26T13:10:33.209Z,55.25
2022-07-26T13:13:00.455Z,55.30
2022-07-26T13:15:36.261Z,55.38
2022-07-26T13:18:06.746Z,54.46
2022-07-26T13:20:33.345Z,55.56
2022-07-26T13:22:59.853Z,54.36
2022-07-26T13:25:29.078Z,55.86
2022-07-26T13:28:05.059Z,54.70
2022-07-26T13:30:31.781Z,54.96
2022-07-26T13:32:58.309Z,55.13
2022-07-26T13:35:24.790Z,54.26
2022-07-26T13:37:51.234Z,53.62
2022-07-26T13:40:17.741Z,54.44
2022-07-26T13:42:44.261Z,54.20
2022-07-26T13:45:11.401Z,53.17
2022-07-26T13:47:37.932Z,53.00
2022-07-26T13:50:04.782Z,53.40
2022-07-26T13:52:33.701Z,52.54
2022-07-26T13:55:00.162Z,52.97
2022-07-26T13:57:49.501Z,51.25
2022-07-26T14:00:13.731Z,52.04
2022-07-26T14:02:40.343Z,51.29
2022-07-26T14:05:07.216Z,51.18
2022-07-26T14:07:33.811Z,51.14
2022-07-26T14:10:00.307Z,51.90
2022-07-26T14:12:26.809Z,52.39
2022-07-26T14:14:53.274Z,52.08
2022-07-26T14:17:19.770Z,52.33
2022-07-26T14:19:46.297Z,51.71
2022-07-26T14:22:13.468Z,50.87
2022-07-26T14:24:40.042Z,50.73
2022-07-26T14:27:06.563Z,49.89
2022-07-26T14:29:33.101Z,50.52
2022-07-26T14:32:02.390Z,49.83
2022-07-26T14:34:29.049Z,51.31
2022-07-26T14:36:55.660Z,51.06
2022-07-26T14:39:22.146Z,50.71
2022-07-26T14:41:48.660Z,50.87
2022-07-26T14:44:15.173Z,50.86
2022-07-26T14:46:43.814Z,50.74
2022-07-26T14:49:10.455Z,50.07
2022-07-26T14:51:37.134Z,49.72
2022-07-26T14:54:04.670Z,49.45
2022-07-26T14:56:31.362Z,50.18
2022-07-26T14:58:57.851Z,50.06
2022-07-26T15:01:24.447Z,49.80
2022-07-26T15:03:50.987Z,49.21
2022-07-26T15:06:17.530Z,48.49
2022-07-26T15:08:44.025Z,48.96
2022-07-26T15:11:10.632Z,48.82
2022-07-26T15:13:37.156Z,49.56
2022-07-26T15:16:03.941Z,48.99
2022-07-26T15:18:31.295Z,48.34
2022-07-26T15:20:57.962Z,47.96
2022-07-26T15:23:24.996Z,47.67
2022-07-26T15:25:51.512Z,48.09
2022-07-26T15:28:18.448Z,47.97
2022-07-26T15:30:45.124Z,47.43
2022-07-26T15:33:11.791Z,47.31
2022-07-26T15:35:40.558Z,47.27
2022-07-26T15:38:07.509Z,47.41
2022-07-26T15:40:34.023Z,47.11
2022-07-26T15:43:00.584Z,47.21
2022-07-26T15:45:28.083Z,46.74
2022-07-26T15:48:09.377Z,46.32
2022-07-26T15:50:44.564Z,46.17
2022-07-26T15:53:11.081Z,45.62
2022-07-26T15:55:37.562Z,45.81
2022-07-26T15:58:05.049Z,45.90
2022-07-26T16:00:31.681Z,45.11
2022-07-26T16:02:58.248Z,45.28
2022-07-26T16:05:24.859Z,45.62
2022-07-26T16:07:51.323Z,45.57
2022-07-26T16:10:17.976Z,45.08
2022-07-26T16:12:44.624Z,45.11
2022-07-26T16:15:11.960Z,45.50
2022-07-26T16:17:39.278Z,45.83
2022-07-26T16:20:07.017Z,45.12
2022-07-26T16:22:34.396Z,44.49
2022-07-26T16:25:01.113Z,44.62
2022-07-26T16:27:27.623Z,44.43
2022-07-26T16:29:54.278Z,44.67
2022-07-26T16:32:21.602Z,43.70
2022-07-26T16:34:48.362Z,43.96
2022-07-26T16:37:14.942Z,44.36
2022-07-26T16:39:41.436Z,44.17
2022-07-26T16:42:07.967Z,43.44
2022-07-26T16:44:36.111Z,43.15
2022-07-26T16:47:02.994Z,42.78
2022-07-26T16:49:29.677Z,42.17
2022-07-26T16:51:56.856Z,41.99
2022-07-26T16:54:23.440Z,40.94
2022-07-26T16:56:50.043Z,40.83
2022-07-26T16:59:17.307Z,40.27
2022-07-26T17:01:44.426Z,40.14
2022-07-26T17:04:10.997Z,40.34
2022-07-26T17:06:37.539Z,40.56
2022-07-26T17:09:04.275Z,40.69
2022-07-26T17:11:30.867Z,40.26
2022-07-26T17:13:57.442Z,39.70
2022-07-26T17:16:25.096Z,39.99
2022-07-26T17:18:53.297Z,40.04
2022-07-26T17:21:19.965Z,40.03
2022-07-26T17:23:46.586Z,40.50
2022-07-26T17:26:13.075Z,40.07
2022-07-26T17:28:39.575Z,40.73
2022-07-26T17:31:06.210Z,40.49
2022-07-26T17:33:32.869Z,40.54
2022-07-26T17:36:03.249Z,40.70
2022-07-26T17:38:31.097Z,40.85
2022-07-26T17:40:57.599Z,41.00
2022-07-26T17:43:25.206Z,41.18
2022-07-26T17:46:03.668Z,40.94
2022-07-26T17:48:30.346Z,41.33
2022-07-26T17:50:56.889Z,41.11
2022-07-26T17:53:31.719Z,41.11
2022-07-26T17:56:01.832Z,41.01
2022-07-26T17:58:28.413Z,40.86
2022-07-26T18:00:54.903Z,40.47
2022-07-26T18:03:22.264Z,40.64
2022-07-26T18:05:50.150Z,40.38
2022-07-26T18:08:16.877Z,40.34
2022-07-26T18:10:47.599Z,40.54
2022-07-26T18:13:17.695Z,40.40
2022-07-26T18:15:44.391Z,40.06
2022-07-26T18:18:11.000Z,40.40
2022-07-26T18:20:37.524Z,40.61
2022-07-26T18:23:04.121Z,40.31
2022-07-26T18:25:30.693Z,40.01
2022-07-26T18:27:57.248Z,40.31
2022-07-26T18:30:23.962Z,40.36
2022-07-26T18:32:50.582Z,40.75
2022-07-26T18:35:17.090Z,40.50
2022-07-26T18:37:43.589Z,40.45
2022-07-26T18:40:10.353Z,40.51
2022-07-26T18:42:37.855Z,41.11
2022-07-26T18:45:04.812Z,41.04
2022-07-26T18:47:31.393Z,40.89
2022-07-26T18:49:57.926Z,41.28
2022-07-26T18:52:31.667Z,41.34
2022-07-26T18:54:59.468Z,40.82
2022-07-26T18:57:25.932Z,40.92
2022-07-26T18:59:52.460Z,41.00
2022-07-26T19:02:19.092Z,40.52
2022-07-26T19:04:45.558Z,40.87
2022-07-26T19:07:12.067Z,40.90
2022-07-26T19:09:38.550Z,40.92
2022-07-26T19:12:05.159Z,40.71
2022-07-26T19:14:31.700Z,40.83
2022-07-26T19:16:58.273Z,40.76
2022-07-26T19:19:24.732Z,41.04
2022-07-26T19:21:51.203Z,40.79
2022-07-26T19:24:17.737Z,40.83
2022-07-26T19:26:44.269Z,40.64
2022-07-26T19:29:11.148Z,40.68
2022-07-26T19:31:40.246Z,40.82
2022-07-26T19:34:06.882Z,40.66
2022-07-26T19:36:33.490Z,40.73
2022-07-26T19:39:01.219Z,40.66
2022-07-26T19:41:27.882Z,40.61
2022-07-26T19:43:54.481Z,40.50
2022-07-26T19:46:21.098Z,40.48
2022-07-26T19:48:47.692Z,40.64
2022-07-26T19:51:14.267Z,41.03
2022-07-26T19:53:40.787Z,41.82
2022-07-26T19:56:07.865Z,41.58
2022-07-26T19:58:34.426Z,41.75
2022-07-26T20:01:01.095Z,41.95
2022-07-26T20:03:27.690Z,41.75
2022-07-26T20:05:55.633Z,41.26
2022-07-26T20:08:22.447Z,41.52
2022-07-26T20:10:48.984Z,41.80
2022-07-26T20:13:15.514Z,41.73
2022-07-26T20:15:42.729Z,42.03
2022-07-26T20:18:10.379Z,41.91
2022-07-26T20:20:36.997Z,42.08
2022-07-26T20:23:05.957Z,41.93
2022-07-26T20:25:32.725Z,41.88
2022-07-26T20:27:59.596Z,42.37
2022-07-26T20:30:26.293Z,41.76
2022-07-26T20:32:52.862Z,42.03
2022-07-26T20:35:19.436Z,41.00
2022-07-26T20:37:45.939Z,41.04
2022-07-26T20:40:13.390Z,40.85
2022-07-26T20:42:44.386Z,40.30
2022-07-26T20:45:12.894Z,40.14
2022-07-26T20:47:42.881Z,40.25
2022-07-26T20:50:10.637Z,40.30
2022-07-26T20:52:37.388Z,39.93
2022-07-26T20:55:04.487Z,40.19
2022-07-26T20:57:31.047Z,40.11
2022-07-26T20:59:57.544Z,39.64
2022-07-26T21:02:24.110Z,39.60
2022-07-26T21:04:50.702Z,39.40
2022-07-26T21:07:17.207Z,39.64
2022-07-26T21:09:43.701Z,39.19
2022-07-26T21:12:10.388Z,39.42
2022-07-26T21:14:36.900Z,39.21
2022-07-26T21:17:07.898Z,39.37
2022-07-26T21:19:37.624Z,39.27
2022-07-26T21:22:04.167Z,39.03
2022-07-26T21:24:30.749Z,39.00
2022-07-26T21:26:57.312Z,39.15
2022-07-26T21:29:23.895Z,40.10
2022-07-26T21:31:50.367Z,39.30
2022-07-26T21:34:16.976Z,39.53
2022-07-26T21:36:43.689Z,39.21
2022-07-26T21:39:10.766Z,39.04
2022-07-26T21:41:38.099Z,39.28
2022-07-26T21:44:05.097Z,39.37
2022-07-26T21:46:31.768Z,39.02
2022-07-26T21:48:58.441Z,39.54
2022-07-26T21:51:24.941Z,39.01
2022-07-26T21:53:51.457Z,39.04
2022-07-26T21:56:18.108Z,39.11
2022-07-26T21:58:44.566Z,39.30
2022-07-26T22:01:13.541Z,39.19
2022-07-26T22:03:41.801Z,39.29
2022-07-26T22:06:09.603Z,38.74
2022-07-26T22:08:36.532Z,39.12
2022-07-26T22:11:03.873Z,38.72
2022-07-26T22:13:30.966Z,38.66
2022-07-26T22:15:57.640Z,38.66
2022-07-26T22:18:24.233Z,38.70
2022-07-26T22:20:50.798Z,38.60
2022-07-26T22:23:18.818Z,38.49
2022-07-26T22:25:46.047Z,38.95
2022-07-26T22:28:18.348Z,38.50
2022-07-26T22:30:45.867Z,38.84
2022-07-26T22:33:12.425Z,38.68
2022-07-26T22:35:39.064Z,38.71
2022-07-26T22:38:08.333Z,38.93
2022-07-26T22:40:35.753Z,39.07
2022-07-26T22:43:02.365Z,39.37
2022-07-26T22:45:30.231Z,38.50
2022-07-26T22:47:57.486Z,39.07
2022-07-26T22:50:25.060Z,39.45
2022-07-26T22:52:52.242Z,39.33
2022-07-26T22:55:19.066Z,39.15
2022-07-26T22:57:45.636Z,39.14
2022-07-26T23:00:14.111Z,39.00
2022-07-26T23:02:41.008Z,39.70
2022-07-26T23:05:08.612Z,39.08
2022-07-26T23:07:35.446Z,39.71
2022-07-26T23:10:02.904Z,39.40
2022-07-26T23:12:29.436Z,39.35
2022-07-26T23:14:55.925Z,39.27
2022-07-26T23:17:22.470Z,39.45
2022-07-26T23:19:48.962Z,39.59
2022-07-26T23:22:15.506Z,39.34
2022-07-26T23:24:43.528Z,40.43
2022-07-26T23:27:10.482Z,39.62
2022-07-26T23:29:37.201Z,39.45
2022-07-26T23:32:03.917Z,39.72
2022-07-26T23:34:30.547Z,39.95
2022-07-26T23:36:57.003Z,39.35
2022-07-26T23:39:23.502Z,39.88
2022-07-26T23:41:49.966Z,40.43
2022-07-26T23:44:17.246Z,39.95
2022-07-26T23:46:43.783Z,40.21
2022-07-26T23:49:10.886Z,39.70
2022-07-26T23:51:38.886Z,39.74
2022-07-26T23:54:05.827Z,39.51
2022-07-26T23:56:32.332Z,39.72
2022-07-26T23:58:58.785Z,39.23
